createdAt,value
2023-03-28T00:02:50.390Z,1.86
2023-03-28T00:06:54.114Z,1.84
2023-03-28T00:11:04.744Z,1.84
2023-03-28T00:15:09.527Z,1.84
2023-03-28T00:19:16.474Z,1.79
2023-03-28T00:23:19.236Z,1.76
2023-03-28T00:27:22.118Z,1.76
2023-03-28T00:31:27.190Z,1.75
2023-03-28T00:35:29.956Z,1.75
2023-03-28T00:39:33.233Z,1.77
2023-03-28T00:43:39.122Z,1.75
2023-03-28T00:47:45.777Z,1.76
2023-03-28T00:51:52.266Z,1.74
2023-03-28T00:55:59.085Z,1.76
2023-03-28T01:00:02.253Z,1.80
2023-03-28T01:04:10.203Z,1.79
2023-03-28T01:08:16.797Z,1.73
2023-03-28T01:12:21.300Z,1.73
2023-03-28T01:16:24.346Z,1.73
2023-03-28T01:20:40.023Z,1.68
2023-03-28T01:25:07.780Z,1.63
2023-03-28T01:30:10.158Z,1.61
2023-03-28T01:34:57.043Z,1.60
2023-03-28T01:39:10.350Z,1.59
2023-03-28T01:43:25.700Z,1.60
2023-03-28T01:47:38.046Z,1.57
2023-03-28T01:51:56.394Z,1.57
2023-03-28T01:56:05.641Z,1.59
2023-03-28T02:00:15.626Z,1.58
2023-03-28T02:04:39.526Z,1.60
2023-03-28T02:08:46.321Z,1.61
2023-03-28T02:13:10.247Z,1.63
2023-03-28T02:17:23.586Z,1.67
2023-03-28T02:22:08.186Z,1.74
2023-03-28T02:26:29.694Z,1.77
2023-03-28T02:30:55.292Z,1.74
2023-03-28T02:34:58.388Z,1.76
2023-03-28T02:39:19.643Z,1.79
2023-03-28T02:43:37.238Z,1.79
2023-03-28T02:47:52.070Z,1.74
2023-03-28T02:52:09.225Z,1.70
2023-03-28T02:56:19.184Z,1.64
2023-03-28T03:00:49.539Z,1.59
2023-03-28T03:04:57.562Z,1.52
2023-03-28T03:09:00.867Z,1.48
2023-03-28T03:13:03.650Z,1.45
2023-03-28T03:17:07.152Z,1.41
2023-03-28T03:21:11.225Z,1.38
2023-03-28T03:25:18.575Z,1.34
2023-03-28T03:29:38.522Z,1.32
2023-03-28T03:33:44.616Z,1.32
2023-03-28T03:37:50.580Z,1.29
2023-03-28T03:41:53.287Z,1.27
2023-03-28T03:45:57.706Z,1.24
2023-03-28T03:50:03.703Z,1.18
2023-03-28T03:54:11.636Z,1.14
2023-03-28T03:58:15.519Z,1.10
2023-03-28T04:02:18.933Z,1.08
2023-03-28T04:06:30.475Z,1.08
2023-03-28T04:10:34.825Z,1.09
2023-03-28T04:14:37.984Z,1.11
2023-03-28T04:18:59.519Z,1.10
2023-03-28T04:23:05.660Z,1.06
2023-03-28T04:27:10.701Z,1.04
2023-03-28T04:31:13.933Z,1.06
2023-03-28T04:35:36.607Z,1.05
2023-03-28T04:39:41.701Z,1.00
2023-03-28T04:44:04.274Z,1.01
2023-03-28T04:48:13.545Z,1.02
2023-03-28T04:52:16.910Z,1.04
2023-03-28T04:56:23.378Z,1.09
2023-03-28T05:00:28.052Z,1.13
2023-03-28T05:04:40.358Z,1.14
2023-03-28T05:08:44.778Z,1.20
2023-03-28T05:12:47.846Z,1.30
2023-03-28T05:16:53.628Z,1.34
2023-03-28T05:21:14.908Z,1.38
2023-03-28T05:25:17.762Z,1.35
2023-03-28T05:29:20.698Z,1.41
2023-03-28T05:33:25.618Z,1.46
2023-03-28T05:37:28.809Z,1.51
2023-03-28T05:41:31.756Z,1.57
2023-03-28T05:45:34.506Z,1.60
2023-03-28T05:49:49.089Z,1.68
2023-03-28T05:53:52.303Z,1.77
2023-03-28T05:57:55.930Z,1.81
2023-03-28T06:02:01.483Z,1.79
2023-03-28T06:06:06.150Z,1.77
2023-03-28T06:10:10.266Z,1.79
2023-03-28T06:14:13.679Z,1.80
2023-03-28T06:18:16.967Z,1.84
2023-03-28T06:22:23.336Z,1.85
2023-03-28T06:26:32.347Z,1.83
2023-03-28T06:30:35.297Z,1.84
2023-03-28T06:34:38.054Z,1.83
2023-03-28T06:38:42.170Z,1.80
2023-03-28T06:42:44.954Z,1.79
2023-03-28T06:47:08.160Z,1.79
2023-03-28T06:51:12.775Z,1.84
2023-03-28T06:55:17.543Z,1.88
2023-03-28T06:59:20.247Z,1.94
2023-03-28T07:03:30.000Z,1.99
2023-03-28T07:07:33.911Z,2.10
2023-03-28T07:11:38.049Z,2.24
2023-03-28T07:15:41.155Z,2.39
2023-03-28T07:19:45.309Z,2.54
2023-03-28T07:23:48.259Z,2.72
2023-03-28T07:27:56.560Z,2.86
2023-03-28T07:31:59.362Z,2.99
2023-03-28T07:36:08.663Z,3.15
2023-03-28T07:40:13.003Z,3.31
2023-03-28T07:44:18.560Z,3.48
2023-03-28T07:48:21.795Z,3.63
2023-03-28T07:52:24.515Z,3.81
2023-03-28T07:56:27.714Z,3.98
2023-03-28T08:00:52.402Z,4.22
2023-03-28T08:05:13.647Z,4.56
2023-03-28T08:09:17.917Z,4.89
2023-03-28T08:13:24.352Z,5.12
2023-03-28T08:17:28.655Z,5.34
2023-03-28T08:21:32.734Z,5.60
2023-03-28T08:25:35.414Z,5.70
2023-03-28T08:29:38.420Z,5.88
2023-03-28T08:33:44.005Z,5.96
2023-03-28T08:37:47.708Z,6.10
2023-03-28T08:42:05.942Z,6.33
2023-03-28T08:46:14.050Z,6.47
2023-03-28T08:50:23.600Z,6.75
2023-03-28T08:54:32.307Z,7.02
2023-03-28T08:58:42.483Z,7.30
2023-03-28T09:02:45.467Z,7.30
2023-03-28T09:06:58.345Z,7.44
2023-03-28T09:11:08.489Z,7.45
2023-03-28T09:15:25.241Z,7.70
2023-03-28T09:19:48.725Z,7.81
2023-03-28T09:24:47.962Z,7.48
2023-03-28T09:28:58.242Z,7.51
2023-03-28T09:33:06.438Z,7.44
2023-03-28T09:37:22.629Z,7.72
2023-03-28T09:41:34.282Z,8.15
2023-03-28T09:46:00.359Z,8.40
2023-03-28T09:50:22.106Z,8.14
2023-03-28T09:54:36.100Z,8.21
2023-03-28T09:58:51.430Z,8.43
2023-03-28T10:02:58.841Z,8.88
2023-03-28T10:07:30.415Z,8.72
2023-03-28T10:11:48.783Z,8.49
2023-03-28T10:15:57.800Z,8.30
2023-03-28T10:20:17.443Z,8.10
2023-03-28T10:24:23.441Z,7.94
2023-03-28T10:28:33.894Z,8.05
2023-03-28T10:32:38.341Z,8.11
2023-03-28T10:36:57.913Z,8.30
2023-03-28T10:41:13.469Z,8.58
2023-03-28T10:45:33.439Z,8.73
2023-03-28T10:49:44.303Z,8.72
2023-03-28T10:54:02.140Z,8.60
2023-03-28T10:58:16.940Z,8.35
2023-03-28T11:02:56.698Z,8.10
2023-03-28T11:07:11.202Z,8.09
2023-03-28T11:11:52.821Z,8.09
2023-03-28T11:16:01.643Z,8.09
2023-03-28T11:20:45.377Z,8.14
2023-03-28T11:24:58.557Z,8.26
2023-03-28T11:29:40.150Z,8.39
2023-03-28T11:33:56.406Z,8.58
2023-03-28T11:38:05.212Z,8.52
2023-03-28T11:42:20.639Z,8.63
2023-03-28T11:46:30.815Z,8.82
2023-03-28T11:50:46.106Z,8.79
2023-03-28T11:55:07.637Z,8.85
2023-03-28T11:59:15.563Z,8.83
2023-03-28T12:03:25.625Z,9.16
2023-03-28T12:07:38.515Z,9.44
2023-03-28T12:12:06.154Z,9.96
2023-03-28T12:16:15.828Z,10.07
2023-03-28T12:20:29.203Z,10.09
2023-03-28T12:24:42.977Z,10.40
2023-03-28T12:28:54.182Z,10.65
2023-03-28T12:33:09.725Z,10.88
2023-03-28T12:37:26.252Z,10.91
2023-03-28T12:41:37.227Z,10.84
2023-03-28T12:45:44.365Z,10.64
2023-03-28T12:49:53.410Z,10.79
2023-03-28T12:54:08.343Z,10.83
2023-03-28T12:58:20.350Z,10.92
2023-03-28T13:02:34.248Z,10.75
2023-03-28T13:06:47.380Z,10.60
2023-03-28T13:11:06.454Z,10.67
2023-03-28T13:15:28.588Z,10.60
2023-03-28T13:19:51.678Z,10.49
2023-03-28T13:23:55.850Z,10.41
2023-03-28T13:28:01.342Z,10.42
2023-03-28T13:32:06.729Z,10.57
2023-03-28T13:36:28.596Z,10.66
2023-03-28T13:40:48.108Z,10.68
2023-03-28T13:44:55.293Z,10.69
2023-03-28T13:49:06.006Z,10.61
2023-03-28T13:53:09.004Z,10.41
2023-03-28T13:57:18.140Z,10.28
2023-03-28T14:01:24.641Z,10.08
2023-03-28T14:05:29.590Z,9.97
2023-03-28T14:09:34.377Z,10.10
2023-03-28T14:13:38.828Z,10.04
2023-03-28T14:17:41.675Z,9.99
2023-03-28T14:21:45.068Z,9.89
2023-03-28T14:25:47.834Z,9.90
2023-03-28T14:29:56.149Z,9.85
2023-03-28T14:33:59.477Z,9.89
2023-03-28T14:38:05.528Z,9.89
2023-03-28T14:42:13.299Z,9.88
2023-03-28T14:46:18.241Z,9.81
2023-03-28T14:50:22.399Z,9.77
2023-03-28T14:54:29.633Z,9.79
2023-03-28T14:58:32.438Z,9.88
2023-03-28T15:02:41.566Z,9.98
2023-03-28T15:06:44.307Z,9.95
2023-03-28T15:10:50.832Z,9.96
2023-03-28T15:14:53.824Z,9.98
2023-03-28T15:19:06.806Z,9.98
2023-03-28T15:23:16.821Z,9.74
2023-03-28T15:27:26.956Z,9.68
2023-03-28T15:31:30.169Z,9.66
2023-03-28T15:35:39.518Z,9.73
2023-03-28T15:39:43.722Z,9.73
2023-03-28T15:44:00.324Z,9.74
2023-03-28T15:48:03.230Z,9.64
2023-03-28T15:52:16.152Z,9.48
2023-03-28T15:56:24.268Z,9.40
2023-03-28T16:00:38.253Z,9.34
2023-03-28T16:04:40.934Z,9.35
2023-03-28T16:08:47.048Z,9.29
2023-03-28T16:12:51.394Z,9.20
2023-03-28T16:17:28.779Z,9.24
2023-03-28T16:21:43.921Z,9.18
2023-03-28T16:25:48.047Z,9.08
2023-03-28T16:29:51.076Z,9.02
2023-03-28T16:33:53.761Z,9.01
2023-03-28T16:37:56.879Z,8.98
2023-03-28T16:42:00.890Z,8.97
2023-03-28T16:46:03.869Z,9.00
2023-03-28T16:50:09.227Z,8.97
2023-03-28T16:54:12.014Z,8.93
2023-03-28T16:58:16.027Z,8.90
2023-03-28T17:02:21.510Z,8.92
2023-03-28T17:06:24.932Z,8.89
2023-03-28T17:10:29.383Z,8.89
2023-03-28T17:14:33.631Z,8.86
2023-03-28T17:18:37.395Z,8.87
2023-03-28T17:22:42.408Z,8.85
2023-03-28T17:26:45.188Z,8.80
2023-03-28T17:30:49.413Z,8.75
2023-03-28T17:34:52.251Z,8.70
2023-03-28T17:38:56.681Z,8.62
2023-03-28T17:42:59.361Z,8.56
2023-03-28T17:47:03.644Z,8.52
2023-03-28T17:51:07.476Z,8.50
2023-03-28T17:55:10.491Z,8.48
2023-03-28T17:59:13.693Z,8.41
2023-03-28T18:03:17.912Z,8.32
2023-03-28T18:07:32.796Z,8.33
2023-03-28T18:11:39.276Z,8.25
2023-03-28T18:15:42.971Z,8.26
2023-03-28T18:19:47.092Z,8.25
2023-03-28T18:23:50.325Z,8.25
2023-03-28T18:27:53.080Z,8.23
2023-03-28T18:31:55.794Z,8.22
2023-03-28T18:36:00.126Z,8.21
2023-03-28T18:40:07.180Z,8.19
2023-03-28T18:44:11.612Z,8.17
2023-03-28T18:48:15.265Z,8.12
2023-03-28T18:52:19.502Z,8.09
2023-03-28T18:56:22.768Z,8.11
2023-03-28T19:00:25.579Z,8.09
2023-03-28T19:04:28.536Z,8.07
2023-03-28T19:08:32.878Z,8.09
2023-03-28T19:12:36.403Z,8.10
2023-03-28T19:16:39.127Z,8.09
2023-03-28T19:20:42.134Z,8.06
2023-03-28T19:24:46.310Z,8.05
2023-03-28T19:28:49.565Z,8.00
2023-03-28T19:32:52.394Z,7.99
2023-03-28T19:36:55.091Z,7.98
2023-03-28T19:40:59.839Z,7.97
2023-03-28T19:45:02.512Z,7.98
2023-03-28T19:49:07.002Z,7.96
2023-03-28T19:53:09.880Z,7.91
2023-03-28T19:57:14.257Z,7.92
2023-03-28T20:01:17.015Z,7.92
2023-03-28T20:05:20.232Z,7.87
2023-03-28T20:09:24.090Z,7.74
2023-03-28T20:13:28.286Z,7.64
2023-03-28T20:17:31.254Z,7.59
2023-03-28T20:21:34.037Z,7.59
2023-03-28T20:25:36.732Z,7.55
2023-03-28T20:29:42.336Z,7.57
2023-03-28T20:33:45.137Z,7.56
2023-03-28T20:37:55.506Z,7.55
2023-03-28T20:42:05.733Z,7.52
2023-03-28T20:46:12.665Z,7.49
2023-03-28T20:50:16.097Z,7.43
2023-03-28T20:54:21.736Z,7.38
2023-03-28T20:58:24.464Z,7.37
2023-03-28T21:02:33.318Z,7.30
2023-03-28T21:06:38.196Z,7.22
2023-03-28T21:10:41.246Z,7.21
2023-03-28T21:14:43.981Z,7.18
2023-03-28T21:18:48.480Z,7.11
2023-03-28T21:22:51.243Z,7.10
2023-03-28T21:26:53.961Z,7.03
2023-03-28T21:30:58.437Z,6.93
2023-03-28T21:35:04.104Z,6.93
2023-03-28T21:39:07.863Z,6.88
2023-03-28T21:43:11.164Z,6.87
2023-03-28T21:47:14.143Z,6.79
2023-03-28T21:51:18.888Z,6.70
2023-03-28T21:55:21.616Z,6.68
2023-03-28T21:59:24.323Z,6.63
2023-03-28T22:03:27.501Z,6.58
2023-03-28T22:07:31.632Z,6.55
2023-03-28T22:11:35.186Z,6.53
2023-03-28T22:15:37.979Z,6.55
2023-03-28T22:19:40.831Z,6.55
2023-03-28T22:23:47.249Z,6.54
2023-03-28T22:27:50.355Z,6.57
2023-03-28T22:31:53.109Z,6.56
2023-03-28T22:35:57.850Z,6.45
2023-03-28T22:40:02.102Z,6.43
2023-03-28T22:44:05.024Z,6.44
2023-03-28T22:48:14.136Z,6.44
2023-03-28T22:52:16.897Z,6.36
2023-03-28T22:56:21.253Z,6.29
2023-03-28T23:00:24.491Z,6.27
2023-03-28T23:04:27.382Z,6.26
2023-03-28T23:08:31.043Z,6.28
2023-03-28T23:12:35.218Z,6.30
2023-03-28T23:16:38.320Z,6.24
2023-03-28T23:20:41.058Z,6.20
2023-03-28T23:24:43.691Z,6.18
2023-03-28T23:28:47.739Z,6.13
2023-03-28T23:32:50.662Z,6.14
2023-03-28T23:36:57.963Z,6.07
2023-03-28T23:41:00.997Z,6.08
2023-03-28T23:45:05.728Z,6.06
2023-03-28T23:49:09.083Z,6.08
2023-03-28T23:53:11.927Z,6.05
2023-03-28T23:57:14.817Z,6.04
